createdAt,value
2017-11-21T00:01:33.016Z,6.30
2017-11-21T00:04:01.284Z,6.30
2017-11-21T00:06:28.760Z,6.30
2017-11-21T00:08:56.251Z,6.30
2017-11-21T00:11:24.494Z,6.30
2017-11-21T00:13:51.989Z,6.30
2017-11-21T00:16:19.470Z,6.40
2017-11-21T00:18:47.742Z,6.30
2017-11-21T00:21:15.213Z,6.30
2017-11-21T00:23:42.705Z,6.40
2017-11-21T00:26:10.945Z,6.40
2017-11-21T00:28:39.432Z,6.30
2017-11-21T00:31:06.909Z,6.40
2017-11-21T00:33:34.405Z,6.30
2017-11-21T00:36:01.884Z,6.40
2017-11-21T00:38:30.149Z,6.40
2017-11-21T00:40:57.616Z,6.40
2017-11-21T00:43:25.113Z,6.40
2017-11-21T00:45:53.352Z,6.50
2017-11-21T00:48:20.845Z,6.40
2017-11-21T00:50:48.321Z,6.50
2017-11-21T00:53:15.817Z,6.50
2017-11-21T00:55:44.057Z,6.50
2017-11-21T00:58:11.557Z,6.50
2017-11-21T01:00:39.038Z,6.50
2017-11-21T01:03:07.301Z,6.50
2017-11-21T01:05:34.772Z,6.40
2017-11-21T01:08:02.284Z,6.50
2017-11-21T01:10:29.762Z,6.50
2017-11-21T01:12:57.253Z,6.50
2017-11-21T01:15:24.734Z,6.60
2017-11-21T01:17:52.229Z,6.60
2017-11-21T01:20:19.701Z,6.60
2017-11-21T01:22:47.193Z,6.60
2017-11-21T01:25:15.432Z,6.60
2017-11-21T01:27:42.929Z,6.50
2017-11-21T01:30:10.401Z,6.60
2017-11-21T01:32:37.895Z,6.60
2017-11-21T01:35:06.138Z,6.60
2017-11-21T01:37:33.633Z,6.60
2017-11-21T01:40:01.110Z,6.60
2017-11-21T01:42:29.365Z,6.70
2017-11-21T01:44:56.849Z,6.60
2017-11-21T01:47:24.347Z,6.70
2017-11-21T01:49:52.585Z,6.70
2017-11-21T01:52:20.065Z,6.60
2017-11-21T01:54:47.560Z,6.70
2017-11-21T01:57:15.818Z,6.70
2017-11-21T01:59:43.317Z,6.70
2017-11-21T02:02:10.792Z,6.70
2017-11-21T02:04:39.056Z,6.70
2017-11-21T02:07:06.525Z,6.70
2017-11-21T02:09:34.016Z,6.70
2017-11-21T02:12:01.492Z,6.70
2017-11-21T02:14:29.761Z,6.80
2017-11-21T02:16:57.247Z,6.70
2017-11-21T02:19:25.505Z,6.80
2017-11-21T02:21:52.982Z,6.70
2017-11-21T02:24:20.473Z,6.80
2017-11-21T02:26:48.723Z,6.90
2017-11-21T02:29:16.217Z,6.80
2017-11-21T02:31:43.701Z,6.90
2017-11-21T02:34:11.965Z,6.90
2017-11-21T02:36:39.441Z,6.80
2017-11-21T02:39:06.933Z,6.90
2017-11-21T02:41:35.170Z,6.90
2017-11-21T02:44:02.664Z,6.80
2017-11-21T02:46:30.145Z,6.90
2017-11-21T02:48:57.646Z,6.90
2017-11-21T02:51:25.134Z,6.90
2017-11-21T02:53:52.634Z,6.90
2017-11-21T02:56:20.110Z,6.90
2017-11-21T02:58:47.606Z,6.90
2017-11-21T03:01:15.085Z,7.00
2017-11-21T03:03:43.347Z,7.00
2017-11-21T03:06:10.824Z,7.00
2017-11-21T03:08:38.317Z,7.00
2017-11-21T03:11:06.574Z,7.00
2017-11-21T03:13:34.073Z,7.00
2017-11-21T03:16:02.312Z,7.00
2017-11-21T03:18:29.804Z,7.00
2017-11-21T03:21:09.111Z,7.00
2017-11-21T03:23:48.474Z,7.00
2017-11-21T03:26:23.942Z,7.10
2017-11-21T03:28:51.441Z,7.10
2017-11-21T03:31:18.914Z,7.10
2017-11-21T03:33:47.181Z,7.10
2017-11-21T03:36:14.657Z,7.00
2017-11-21T03:38:42.168Z,7.20
2017-11-21T03:41:09.648Z,7.20
2017-11-21T03:43:37.140Z,7.20
2017-11-21T03:46:04.618Z,7.20
2017-11-21T03:48:32.110Z,7.20
2017-11-21T03:50:59.585Z,7.20
2017-11-21T03:53:27.072Z,7.20
2017-11-21T03:55:55.308Z,7.20
2017-11-21T03:58:22.808Z,7.20
2017-11-21T04:00:52.806Z,7.20
2017-11-21T04:03:20.301Z,7.20
2017-11-21T04:05:47.776Z,7.20
2017-11-21T04:08:15.265Z,7.20
2017-11-21T04:10:43.512Z,7.20
2017-11-21T04:13:10.993Z,7.10
2017-11-21T04:15:38.492Z,7.20
2017-11-21T04:18:06.733Z,7.10
2017-11-21T04:20:34.233Z,7.00
2017-11-21T04:23:01.720Z,7.10
2017-11-21T04:25:29.981Z,7.20
2017-11-21T04:27:57.461Z,7.10
2017-11-21T04:30:24.967Z,7.10
2017-11-21T04:32:52.444Z,7.20
2017-11-21T04:35:19.946Z,7.10
2017-11-21T04:37:47.430Z,7.20
2017-11-21T04:40:14.937Z,7.20
2017-11-21T04:42:43.181Z,7.30
2017-11-21T04:45:10.685Z,7.20
2017-11-21T04:47:38.932Z,7.20
2017-11-21T04:50:06.437Z,7.20
2017-11-21T04:52:34.693Z,7.30
2017-11-21T04:55:02.185Z,7.20
2017-11-21T04:57:29.661Z,7.30
2017-11-21T04:59:57.165Z,7.30
2017-11-21T05:02:24.642Z,7.30
2017-11-21T05:04:52.132Z,7.30
2017-11-21T05:07:19.604Z,7.30
2017-11-21T05:09:47.097Z,7.30
2017-11-21T05:12:14.565Z,7.40
2017-11-21T05:14:42.060Z,7.40
2017-11-21T05:17:10.304Z,7.40
2017-11-21T05:19:37.814Z,7.40
2017-11-21T05:22:06.065Z,7.50
2017-11-21T05:24:33.569Z,7.40
2017-11-21T05:27:01.822Z,7.50
2017-11-21T05:29:29.362Z,7.50
2017-11-21T05:31:56.832Z,7.60
2017-11-21T05:34:24.324Z,7.60
2017-11-21T05:36:51.800Z,7.60
2017-11-21T05:39:19.285Z,7.60
2017-11-21T05:41:46.760Z,7.60
2017-11-21T05:44:14.257Z,7.60
2017-11-21T05:46:42.502Z,7.70
2017-11-21T05:49:09.996Z,7.60
2017-11-21T05:51:37.469Z,7.70
2017-11-21T05:54:04.965Z,7.70
2017-11-21T05:56:32.446Z,7.70
2017-11-21T05:58:59.945Z,7.60
2017-11-21T06:01:27.434Z,7.70
2017-11-21T06:03:54.934Z,7.60
2017-11-21T06:06:23.181Z,7.70
2017-11-21T06:08:50.677Z,7.60
2017-11-21T06:11:18.154Z,7.60
2017-11-21T06:13:45.632Z,7.60
2017-11-21T06:16:13.901Z,7.60
2017-11-21T06:18:41.421Z,7.60
2017-11-21T06:21:08.922Z,7.60
2017-11-21T06:23:36.393Z,7.60
2017-11-21T06:26:03.903Z,7.70
2017-11-21T06:28:31.389Z,7.70
2017-11-21T06:30:58.892Z,7.70
2017-11-21T06:33:26.386Z,7.70
2017-11-21T06:35:53.893Z,7.80
2017-11-21T06:38:22.142Z,7.80
2017-11-21T06:40:49.641Z,7.70
2017-11-21T06:43:17.881Z,7.80
2017-11-21T06:45:45.385Z,7.80
2017-11-21T06:48:12.858Z,7.80
2017-11-21T06:50:40.350Z,7.80
2017-11-21T06:53:07.825Z,7.90
2017-11-21T06:55:35.322Z,7.80
2017-11-21T06:58:02.801Z,7.90
2017-11-21T07:00:30.294Z,7.90
2017-11-21T07:02:57.765Z,7.90
2017-11-21T07:05:25.264Z,7.90
2017-11-21T07:07:53.509Z,7.90
2017-11-21T07:10:21.018Z,7.90
2017-11-21T07:12:49.544Z,7.90
2017-11-21T07:15:17.038Z,7.90
2017-11-21T07:17:44.516Z,7.90
2017-11-21T07:20:12.014Z,7.90
2017-11-21T07:22:40.257Z,7.90
2017-11-21T07:25:07.763Z,7.90
2017-11-21T07:27:58.290Z,7.90
2017-11-21T07:30:26.831Z,7.90
2017-11-21T07:32:54.344Z,7.80
2017-11-21T07:35:22.608Z,7.90
2017-11-21T07:37:50.086Z,7.80
2017-11-21T07:40:17.594Z,7.90
2017-11-21T07:42:45.077Z,7.90
2017-11-21T07:45:26.841Z,7.90
2017-11-21T07:47:54.642Z,7.90
2017-11-21T07:50:22.569Z,7.90
2017-11-21T07:52:51.193Z,7.90
2017-11-21T07:55:19.071Z,7.80
2017-11-21T07:57:57.273Z,7.90
2017-11-21T08:00:25.952Z,7.90
2017-11-21T08:03:03.686Z,7.80
2017-11-21T08:05:32.340Z,8.00
2017-11-21T08:07:59.864Z,7.90
2017-11-21T08:10:27.361Z,7.90
2017-11-21T08:12:55.609Z,7.90
2017-11-21T08:15:23.112Z,7.90
2017-11-21T08:17:51.348Z,8.00
2017-11-21T08:20:18.926Z,7.90
2017-11-21T08:22:46.405Z,8.00
2017-11-21T08:25:13.918Z,8.00
2017-11-21T08:27:41.428Z,8.00
2017-11-21T08:30:08.917Z,8.00
2017-11-21T08:32:36.394Z,7.90
2017-11-21T08:35:03.893Z,7.90
2017-11-21T08:37:32.144Z,8.00
2017-11-21T08:39:59.645Z,7.90
2017-11-21T08:42:27.885Z,7.90
2017-11-21T08:44:56.149Z,7.90
2017-11-21T08:47:23.764Z,7.80
2017-11-21T08:49:51.258Z,7.90
2017-11-21T08:52:18.745Z,7.80
2017-11-21T08:54:47.011Z,7.80
2017-11-21T08:57:14.500Z,7.70
2017-11-21T08:59:42.762Z,7.70
2017-11-21T09:02:10.242Z,7.70
2017-11-21T09:04:37.740Z,7.70
2017-11-21T09:07:05.982Z,7.50
2017-11-21T09:09:33.490Z,7.50
2017-11-21T09:12:01.728Z,7.60
2017-11-21T09:14:29.204Z,7.50
2017-11-21T09:16:56.708Z,7.60
2017-11-21T09:19:24.200Z,7.60
2017-11-21T09:21:51.696Z,7.60
2017-11-21T09:24:19.175Z,7.60
2017-11-21T09:26:46.674Z,7.60
2017-11-21T09:29:14.162Z,7.60
2017-11-21T09:31:48.341Z,7.50
2017-11-21T09:34:16.584Z,7.50
2017-11-21T09:36:44.085Z,7.50
2017-11-21T09:39:11.557Z,7.50
2017-11-21T09:41:43.029Z,7.60
2017-11-21T09:44:11.273Z,7.60
2017-11-21T09:46:39.536Z,7.60
2017-11-21T09:49:07.021Z,7.60
2017-11-21T09:51:35.286Z,7.60
2017-11-21T09:54:02.778Z,7.60
2017-11-21T09:56:30.273Z,7.60
2017-11-21T09:58:57.761Z,7.70
2017-11-21T10:01:25.266Z,7.60
2017-11-21T10:03:52.745Z,7.70
2017-11-21T10:06:20.237Z,7.70
2017-11-21T10:08:48.497Z,7.70
2017-11-21T10:11:16.008Z,7.70
2017-11-21T10:13:44.252Z,7.70
2017-11-21T10:16:11.752Z,7.70
2017-11-21T10:18:40.007Z,7.70
2017-11-21T10:21:07.505Z,7.70
2017-11-21T10:23:34.982Z,7.60
2017-11-21T10:26:03.373Z,7.60
2017-11-21T10:28:30.866Z,7.60
2017-11-21T10:30:58.370Z,7.70
2017-11-21T10:33:25.841Z,7.70
2017-11-21T10:35:53.339Z,7.70
2017-11-21T10:38:20.816Z,7.70
2017-11-21T10:40:48.312Z,7.70
2017-11-21T10:43:15.793Z,7.70
2017-11-21T10:45:43.285Z,7.70
2017-11-21T10:48:10.767Z,7.70
2017-11-21T10:50:38.262Z,7.70
2017-11-21T10:53:06.526Z,7.70
2017-11-21T10:55:34.049Z,7.60
2017-11-21T10:58:01.528Z,7.70
2017-11-21T11:00:29.025Z,7.70
2017-11-21T11:02:56.500Z,7.70
2017-11-21T11:05:24.014Z,7.70
2017-11-21T11:07:52.260Z,7.60
2017-11-21T11:10:19.759Z,7.60
2017-11-21T11:12:47.233Z,7.70
2017-11-21T11:15:14.727Z,7.70
2017-11-21T11:17:42.214Z,7.70
2017-11-21T11:20:09.721Z,7.70
2017-11-21T11:22:37.196Z,7.60
2017-11-21T11:25:04.668Z,7.60
2017-11-21T11:27:32.170Z,7.70
2017-11-21T11:29:59.661Z,7.70
2017-11-21T11:32:27.165Z,7.80
2017-11-21T11:34:54.646Z,7.70
2017-11-21T11:37:22.156Z,7.80
2017-11-21T11:39:49.638Z,7.80
2017-11-21T11:42:17.131Z,7.70
2017-11-21T11:44:44.611Z,7.70
2017-11-21T11:47:12.104Z,7.70
2017-11-21T11:49:39.588Z,7.80
2017-11-21T11:52:07.852Z,7.70
2017-11-21T11:54:35.361Z,7.70
2017-11-21T11:57:02.940Z,7.70
2017-11-21T11:59:30.408Z,7.80
2017-11-21T12:01:57.909Z,7.80
2017-11-21T12:04:25.394Z,7.80
2017-11-21T12:06:52.897Z,7.80
2017-11-21T12:09:21.145Z,7.70
2017-11-21T12:11:48.673Z,7.70
2017-11-21T12:14:16.160Z,7.70
2017-11-21T12:16:43.690Z,7.70
2017-11-21T12:19:11.174Z,7.70
2017-11-21T12:21:39.481Z,7.70
2017-11-21T12:24:06.972Z,7.70
2017-11-21T12:26:34.492Z,7.70
2017-11-21T12:29:02.774Z,7.70
2017-11-21T12:31:30.285Z,7.60
2017-11-21T12:33:57.766Z,7.70
2017-11-21T12:36:28.528Z,7.70
2017-11-21T12:38:56.064Z,7.80
2017-11-21T12:41:24.518Z,7.80
2017-11-21T12:43:51.996Z,7.80
2017-11-21T12:46:19.500Z,7.80
2017-11-21T12:48:46.973Z,7.80
2017-11-21T12:51:14.477Z,7.80
2017-11-21T12:53:41.958Z,7.90
2017-11-21T12:56:09.456Z,7.90
2017-11-21T12:58:37.706Z,8.00
2017-11-21T13:01:05.224Z,8.00
2017-11-21T13:03:32.729Z,8.00
2017-11-21T13:06:00.228Z,8.00
2017-11-21T13:08:27.721Z,8.10
2017-11-21T13:10:55.989Z,8.10
2017-11-21T13:13:23.485Z,8.10
2017-11-21T13:15:51.757Z,8.10
2017-11-21T13:18:19.262Z,8.10
2017-11-21T13:20:46.762Z,8.10
2017-11-21T13:23:14.253Z,8.10
2017-11-21T13:25:41.765Z,8.10
2017-11-21T13:28:09.253Z,8.10
2017-11-21T13:30:36.729Z,8.20
2017-11-21T13:33:04.247Z,8.20
2017-11-21T13:35:31.736Z,8.20
2017-11-21T13:38:00.019Z,8.20
2017-11-21T13:40:28.264Z,8.20
2017-11-21T13:42:55.781Z,8.20
2017-11-21T13:45:24.027Z,8.30
2017-11-21T13:47:51.529Z,8.20
2017-11-21T13:50:19.009Z,8.30
2017-11-21T13:52:47.273Z,8.30
2017-11-21T13:55:14.769Z,8.20
2017-11-21T13:57:43.047Z,8.30
2017-11-21T14:00:10.533Z,8.30
2017-11-21T14:02:50.384Z,8.30
2017-11-21T14:05:22.185Z,8.30
2017-11-21T14:07:49.685Z,8.30
2017-11-21T14:10:17.169Z,8.30
2017-11-21T14:12:44.682Z,8.40
2017-11-21T14:15:12.928Z,8.30
2017-11-21T14:17:40.436Z,8.20
2017-11-21T14:20:08.692Z,8.30
2017-11-21T14:22:36.221Z,8.30
2017-11-21T14:25:03.717Z,8.40
2017-11-21T14:27:31.219Z,8.30
2017-11-21T14:29:59.473Z,8.30
2017-11-21T14:32:26.974Z,8.30
2017-11-21T14:34:54.458Z,8.40
2017-11-21T14:37:22.735Z,8.40
2017-11-21T14:39:50.981Z,8.40
2017-11-21T14:42:18.481Z,8.40
2017-11-21T14:44:45.967Z,8.40
2017-11-21T14:47:14.229Z,8.40
2017-11-21T14:49:41.726Z,8.30
2017-11-21T14:52:09.327Z,8.40
2017-11-21T14:54:36.810Z,8.30
2017-11-21T14:57:04.327Z,8.40
2017-11-21T14:59:31.809Z,8.40
2017-11-21T15:02:00.088Z,8.40
2017-11-21T15:04:28.341Z,8.40
2017-11-21T15:06:55.854Z,8.30
2017-11-21T15:09:24.113Z,8.40
2017-11-21T15:11:51.630Z,8.30
2017-11-21T15:14:19.877Z,8.40
2017-11-21T15:16:47.389Z,8.30
2017-11-21T15:19:14.873Z,8.40
2017-11-21T15:21:42.385Z,8.40
2017-11-21T15:24:09.880Z,8.30
2017-11-21T15:26:38.145Z,8.30
2017-11-21T15:29:05.633Z,8.30
2017-11-21T15:31:33.142Z,8.40
2017-11-21T15:34:00.635Z,8.40
2017-11-21T15:36:28.137Z,8.50
2017-11-21T15:38:55.626Z,8.50
2017-11-21T15:41:23.142Z,8.50
2017-11-21T15:43:50.625Z,8.50
2017-11-21T15:46:18.129Z,8.50
2017-11-21T15:48:46.380Z,8.60
2017-11-21T15:51:13.882Z,8.60
2017-11-21T15:53:41.362Z,8.60
2017-11-21T15:56:09.616Z,8.50
2017-11-21T15:58:37.129Z,8.50
2017-11-21T16:01:04.624Z,8.50
2017-11-21T16:03:32.121Z,8.40
2017-11-21T16:05:59.602Z,8.40
2017-11-21T16:08:27.106Z,8.30
2017-11-21T16:10:54.601Z,8.30
2017-11-21T16:13:22.105Z,8.30
2017-11-21T16:15:49.588Z,8.30
2017-11-21T16:18:17.103Z,8.30
2017-11-21T16:20:44.580Z,8.30
2017-11-21T16:23:12.082Z,8.40
2017-11-21T16:25:39.574Z,8.30
2017-11-21T16:28:07.086Z,8.30
2017-11-21T16:30:34.562Z,8.30
2017-11-21T16:33:02.065Z,8.30
2017-11-21T16:35:29.551Z,8.30
2017-11-21T16:37:57.057Z,8.20
2017-11-21T16:40:24.545Z,8.30
2017-11-21T16:42:52.837Z,8.30
2017-11-21T16:45:20.316Z,8.20
2017-11-21T16:47:47.816Z,8.30
2017-11-21T16:50:15.317Z,8.30
2017-11-21T16:52:44.579Z,8.30
2017-11-21T16:55:12.069Z,8.30
2017-11-21T16:57:39.577Z,8.30
2017-11-21T17:00:07.177Z,8.30
2017-11-21T17:02:34.683Z,8.30
2017-11-21T17:05:02.177Z,8.30
2017-11-21T17:07:30.456Z,8.30
2017-11-21T17:09:57.941Z,8.20
2017-11-21T17:12:26.207Z,8.30
2017-11-21T17:14:53.693Z,8.20
2017-11-21T17:17:21.962Z,8.40
2017-11-21T17:19:49.448Z,8.30
2017-11-21T17:22:17.710Z,8.20
2017-11-21T17:24:45.189Z,8.20
2017-11-21T17:27:12.689Z,8.20
2017-11-21T17:29:40.942Z,8.30
2017-11-21T17:32:10.457Z,8.20
2017-11-21T17:34:37.947Z,8.30
2017-11-21T17:37:05.472Z,8.20
2017-11-21T17:39:32.969Z,8.30
2017-11-21T17:42:00.453Z,8.30
2017-11-21T17:44:27.960Z,8.40
2017-11-21T17:46:55.445Z,8.30
2017-11-21T17:49:22.956Z,8.30
2017-11-21T17:51:50.452Z,8.20
2017-11-21T17:54:18.736Z,8.30
2017-11-21T17:56:47.187Z,8.20
2017-11-21T17:59:14.706Z,8.20
2017-11-21T18:01:42.957Z,8.30
2017-11-21T18:04:11.445Z,8.20
2017-11-21T18:06:38.942Z,8.30
2017-11-21T18:09:07.214Z,8.30
2017-11-21T18:11:34.698Z,8.20
2017-11-21T18:14:02.207Z,8.30
2017-11-21T18:16:29.689Z,8.30
2017-11-21T18:18:57.202Z,8.30
2017-11-21T18:21:24.685Z,8.20
2017-11-21T18:23:52.984Z,8.20
2017-11-21T18:26:21.245Z,8.20
2017-11-21T18:28:48.756Z,8.10
2017-11-21T18:31:16.249Z,8.20
2017-11-21T18:33:43.754Z,8.20
2017-11-21T18:36:11.249Z,8.20
2017-11-21T18:38:39.522Z,8.20
2017-11-21T18:41:07.028Z,8.10
2017-11-21T18:43:34.541Z,8.20
2017-11-21T18:46:02.030Z,8.20
2017-11-21T18:48:29.516Z,8.20
2017-11-21T18:50:57.800Z,8.30
2017-11-21T18:53:26.056Z,8.30
2017-11-21T18:55:53.557Z,8.20
2017-11-21T18:58:21.820Z,8.30
2017-11-21T19:00:50.126Z,8.30
2017-11-21T19:03:17.617Z,8.20
2017-11-21T19:05:45.885Z,8.30
2017-11-21T19:08:14.790Z,8.20
2017-11-21T19:10:43.901Z,8.30
2017-11-21T19:13:11.713Z,8.30
2017-11-21T19:15:39.281Z,8.30
2017-11-21T19:18:06.813Z,8.30
2017-11-21T19:20:34.327Z,8.30
2017-11-21T19:23:01.824Z,8.30
2017-11-21T19:25:29.330Z,8.40
2017-11-21T19:28:08.186Z,8.40
2017-11-21T19:30:36.498Z,8.40
2017-11-21T19:33:04.003Z,8.30
2017-11-21T19:35:31.509Z,8.30
2017-11-21T19:37:59.760Z,8.30
2017-11-21T19:40:27.268Z,8.30
2017-11-21T19:42:55.541Z,8.30
2017-11-21T19:45:23.052Z,8.20
2017-11-21T19:47:50.547Z,8.20
2017-11-21T19:50:18.060Z,8.20
2017-11-21T19:52:46.317Z,8.20
2017-11-21T19:55:13.833Z,8.10
2017-11-21T19:57:42.086Z,8.30
2017-11-21T20:00:09.574Z,8.20
2017-11-21T20:02:37.864Z,8.40
2017-11-21T20:05:06.121Z,8.30
2017-11-21T20:07:33.634Z,8.30
2017-11-21T20:10:01.881Z,8.30
2017-11-21T20:12:29.385Z,8.30
2017-11-21T20:14:57.645Z,8.30
2017-11-21T20:17:25.152Z,8.30
2017-11-21T20:19:53.404Z,8.40
2017-11-21T20:22:20.924Z,8.30
2017-11-21T20:24:48.405Z,8.40
2017-11-21T20:27:15.907Z,8.30
2017-11-21T20:29:43.397Z,8.40
2017-11-21T20:32:10.908Z,8.40
2017-11-21T20:34:38.400Z,8.40
2017-11-21T20:37:05.913Z,8.50
2017-11-21T20:39:33.396Z,8.40
2017-11-21T20:42:01.673Z,8.40
2017-11-21T20:44:29.157Z,8.30
2017-11-21T20:46:56.670Z,8.30
2017-11-21T20:49:24.166Z,8.40
2017-11-21T20:51:51.677Z,8.30
2017-11-21T20:54:19.170Z,8.30
2017-11-21T20:56:46.673Z,8.30
2017-11-21T20:59:14.161Z,8.30
2017-11-21T21:01:41.645Z,8.30
2017-11-21T21:04:09.916Z,8.40
2017-11-21T21:06:37.402Z,8.30
2017-11-21T21:09:04.909Z,8.40
2017-11-21T21:11:32.393Z,8.40
2017-11-21T21:13:59.901Z,8.30
2017-11-21T21:16:28.181Z,8.40
2017-11-21T21:18:55.692Z,8.40
2017-11-21T21:21:23.185Z,8.40
2017-11-21T21:23:51.481Z,8.30
2017-11-21T21:26:18.985Z,8.30
2017-11-21T21:28:46.509Z,8.30
2017-11-21T21:31:14.009Z,8.30
2017-11-21T21:33:41.512Z,8.30
2017-11-21T21:36:09.769Z,8.40
2017-11-21T21:38:37.285Z,8.30
2017-11-21T21:41:04.772Z,8.40
2017-11-21T21:43:32.290Z,8.30
2017-11-21T21:45:59.787Z,8.40
2017-11-21T21:48:28.072Z,8.40
2017-11-21T21:50:56.320Z,8.30
2017-11-21T21:53:23.828Z,8.30
2017-11-21T21:55:52.089Z,8.40
2017-11-21T21:58:19.608Z,8.40
2017-11-21T22:00:47.090Z,8.40
2017-11-21T22:03:14.594Z,8.40
2017-11-21T22:05:42.073Z,8.40
2017-11-21T22:08:09.589Z,8.40
2017-11-21T22:10:37.077Z,8.40
2017-11-21T22:13:04.565Z,8.50
2017-11-21T22:15:32.072Z,8.50
2017-11-21T22:18:00.321Z,8.50
2017-11-21T22:20:27.824Z,8.40
2017-11-21T22:22:55.305Z,8.50
2017-11-21T22:25:23.577Z,8.40
2017-11-21T22:27:51.063Z,8.40
2017-11-21T22:30:19.332Z,8.50
2017-11-21T22:32:46.816Z,8.40
2017-11-21T22:35:15.089Z,8.50
2017-11-21T22:37:42.573Z,8.40
2017-11-21T22:40:10.076Z,8.50
2017-11-21T22:42:37.569Z,8.50
2017-11-21T22:45:05.072Z,8.50
2017-11-21T22:47:32.553Z,8.40
2017-11-21T22:50:00.825Z,8.50
2017-11-21T22:52:47.137Z,8.40
2017-11-21T22:55:14.642Z,8.50
2017-11-21T22:57:42.896Z,8.60
2017-11-21T23:00:10.401Z,8.50
2017-11-21T23:02:38.004Z,8.50
2017-11-21T23:05:05.504Z,8.60
2017-11-21T23:07:32.989Z,8.60
2017-11-21T23:10:00.494Z,8.50
2017-11-21T23:12:27.981Z,8.60
2017-11-21T23:14:55.482Z,8.60
2017-11-21T23:17:22.965Z,8.60
2017-11-21T23:19:50.465Z,8.60
2017-11-21T23:22:17.948Z,8.50
2017-11-21T23:24:45.453Z,8.60
2017-11-21T23:27:12.945Z,8.60
2017-11-21T23:29:40.450Z,8.60
2017-11-21T23:32:07.932Z,8.70
2017-11-21T23:34:35.437Z,8.70
2017-11-21T23:37:02.936Z,8.70
2017-11-21T23:39:31.201Z,8.60
2017-11-21T23:41:58.684Z,8.60
2017-11-21T23:44:26.185Z,8.60
2017-11-21T23:46:54.437Z,8.60
2017-11-21T23:49:21.936Z,8.60
2017-11-21T23:51:58.525Z,8.60
2017-11-21T23:54:26.793Z,8.60
2017-11-21T23:56:55.045Z,8.60
2017-11-21T23:59:22.548Z,8.60
